createdAt,value
2022-08-01T04:16:48.148Z,99988.91
2022-08-01T04:22:51.065Z,99997.34
2022-08-01T04:28:55.946Z,100002.72
2022-08-01T04:35:01.227Z,100008.41
2022-08-01T04:41:08.470Z,100006.88
2022-08-01T04:47:13.048Z,100005.78
2022-08-01T04:53:23.202Z,99996.56
2022-08-01T04:59:43.190Z,100001.53
2022-08-01T05:05:45.501Z,99997.25
2022-08-01T05:11:47.740Z,100001.47
2022-08-01T05:17:50.815Z,100007.63
2022-08-01T05:23:53.334Z,100012.63
2022-08-01T05:29:56.490Z,100019.38
2022-08-01T05:35:58.492Z,100017.00
2022-08-01T05:42:01.190Z,100018.47
2022-08-01T05:48:03.761Z,100015.66
2022-08-01T05:54:05.918Z,100017.13
2022-08-01T06:00:09.030Z,100021.78
2022-08-01T06:06:15.269Z,100015.25
2022-08-01T06:12:18.455Z,100023.09
2022-08-01T06:18:21.689Z,100013.34
2022-08-01T06:24:25.056Z,100025.38
2022-08-01T06:30:28.302Z,100018.03
2022-08-01T06:36:35.236Z,100035.03
2022-08-01T06:42:37.277Z,100040.00
2022-08-01T06:48:41.406Z,100041.41
2022-08-01T06:54:43.656Z,100038.78
2022-08-01T07:00:45.645Z,100041.44
2022-08-01T07:06:47.603Z,100047.13
2022-08-01T07:12:49.637Z,100040.56
2022-08-01T07:18:53.568Z,100036.47
2022-08-01T07:24:55.786Z,100036.50
2022-08-01T07:31:00.198Z,100035.53
2022-08-01T07:37:02.662Z,100046.81
2022-08-01T07:43:05.662Z,100045.72
2022-08-01T07:49:10.190Z,100053.56
2022-08-01T07:55:16.411Z,100051.16
2022-08-01T08:01:20.913Z,100042.13
2022-08-01T08:07:23.146Z,100049.97
2022-08-01T08:13:27.404Z,100063.31
2022-08-01T08:19:38.153Z,100054.59
2022-08-01T08:25:41.313Z,100058.22
2022-08-01T08:31:51.766Z,100050.25
2022-08-01T08:37:56.085Z,100057.84
2022-08-01T08:44:05.055Z,100056.56
2022-08-01T08:50:08.816Z,100064.59
2022-08-01T08:56:14.493Z,100077.09
2022-08-01T09:02:16.933Z,100076.19
2022-08-01T09:08:19.351Z,100084.81
2022-08-01T09:14:33.628Z,100071.94
2022-08-01T09:20:37.409Z,100081.53
2022-08-01T09:26:39.535Z,100084.81
2022-08-01T09:33:01.806Z,100076.03
2022-08-01T09:39:15.249Z,100091.53
2022-08-01T09:45:41.077Z,100091.94
2022-08-01T09:51:58.949Z,100092.44
2022-08-01T09:58:05.562Z,100089.69
2022-08-01T10:04:12.202Z,100092.13
2022-08-01T10:10:19.405Z,100098.75
2022-08-01T10:16:24.649Z,100082.97
2022-08-01T10:22:29.376Z,100088.84
2022-08-01T10:28:32.576Z,100081.88
2022-08-01T10:34:35.995Z,100083.34
2022-08-01T10:40:41.593Z,100074.47
2022-08-01T10:46:48.302Z,100067.31
2022-08-01T10:53:16.502Z,100062.19
2022-08-01T10:59:50.061Z,100064.56
2022-08-01T11:05:53.429Z,100066.09
2022-08-01T11:12:28.116Z,100069.00
2022-08-01T11:18:37.421Z,100053.53
2022-08-01T11:24:50.967Z,100056.78
2022-08-01T11:31:17.233Z,100051.34
2022-08-01T11:37:30.502Z,100050.28
2022-08-01T11:43:34.520Z,100053.88
2022-08-01T11:49:51.881Z,100050.72
2022-08-01T11:55:56.382Z,100049.19
2022-08-01T12:01:59.900Z,100048.00
2022-08-01T12:08:02.730Z,100049.41
2022-08-01T12:14:07.857Z,100043.53
2022-08-01T12:20:12.720Z,100036.22
2022-08-01T12:26:28.553Z,100026.00
2022-08-01T12:32:37.746Z,100027.94
2022-08-01T12:38:40.982Z,100031.69
2022-08-01T12:44:46.106Z,100032.63
2022-08-01T12:50:53.717Z,100020.31
2022-08-01T12:56:57.621Z,100017.53
2022-08-01T13:03:09.592Z,100013.69
2022-08-01T13:09:14.789Z,100012.13
2022-08-01T13:15:21.986Z,100011.00
2022-08-01T13:21:28.443Z,99998.88
2022-08-01T13:27:31.177Z,100006.56
2022-08-01T13:34:00.925Z,100007.63
2022-08-01T13:40:03.116Z,100012.56
2022-08-01T13:46:09.262Z,100004.50
2022-08-01T13:52:11.678Z,100011.41
2022-08-01T13:58:13.906Z,100008.50
2022-08-01T14:04:16.423Z,100004.94
2022-08-01T14:10:20.612Z,100015.44
2022-08-01T14:16:25.348Z,100014.06
2022-08-01T14:22:29.046Z,100009.59
2022-08-01T14:28:31.848Z,100010.81
2022-08-01T14:34:34.511Z,100010.91
2022-08-01T14:40:36.878Z,100006.41
2022-08-01T14:46:57.286Z,100014.84
2022-08-01T14:53:01.389Z,100015.84
2022-08-01T14:59:04.252Z,100019.75
2022-08-01T15:05:25.044Z,100023.69
2022-08-01T15:11:27.232Z,100028.13
2022-08-01T15:17:36.791Z,100033.31
2022-08-01T15:23:40.941Z,100030.28
2022-08-01T15:29:44.019Z,100026.66
2022-08-01T15:35:46.244Z,100025.75
2022-08-01T15:41:48.463Z,100039.81
2022-08-01T15:47:50.482Z,100035.09
2022-08-01T15:53:52.494Z,100036.78
2022-08-01T15:59:54.484Z,100046.63
2022-08-01T16:05:56.908Z,100048.69
2022-08-01T16:11:58.948Z,100055.59
2022-08-01T16:18:02.206Z,100057.66
2022-08-01T16:24:04.866Z,100063.78
2022-08-01T16:30:08.025Z,100069.13
2022-08-01T16:36:11.402Z,100072.03
2022-08-01T16:42:22.439Z,100065.78
2022-08-01T16:48:30.085Z,100071.94
2022-08-01T16:54:33.182Z,100075.31
2022-08-01T17:00:35.923Z,100075.66
2022-08-01T17:06:39.115Z,100071.97
2022-08-01T17:12:42.399Z,100073.72
2022-08-01T17:18:44.868Z,100076.22
2022-08-01T17:24:47.577Z,100084.19
2022-08-01T17:30:50.253Z,100078.22
2022-08-01T17:36:53.541Z,100078.34
2022-08-01T17:42:56.088Z,100086.88
2022-08-01T17:48:59.556Z,100095.59
2022-08-01T17:55:03.461Z,100107.81
2022-08-01T18:01:05.561Z,100126.53
2022-08-01T18:07:09.764Z,100126.28
2022-08-01T18:13:13.706Z,100143.78
2022-08-01T18:19:15.798Z,100138.97
2022-08-01T18:25:20.070Z,100156.81
2022-08-01T18:31:23.100Z,100154.94
2022-08-01T18:37:26.769Z,100174.03
2022-08-01T18:43:32.781Z,100189.78
2022-08-01T18:49:35.337Z,100199.03
2022-08-01T18:55:37.489Z,100197.63
2022-08-01T19:01:39.987Z,100204.38
2022-08-01T19:08:05.913Z,100210.59
2022-08-01T19:14:07.250Z,100206.53
2022-08-01T19:20:10.878Z,100216.94
2022-08-01T19:26:16.253Z,100225.03
2022-08-01T19:32:19.414Z,100230.06
2022-08-01T19:38:23.018Z,100232.06
2022-08-01T19:44:26.645Z,100228.25
2022-08-01T19:50:30.095Z,100239.81
2022-08-01T19:56:40.834Z,100237.53
2022-08-01T20:02:46.454Z,100242.56
2022-08-01T20:08:51.172Z,100241.44
2022-08-01T20:14:56.146Z,100245.31
2022-08-01T20:20:59.022Z,100253.78
2022-08-01T20:27:01.137Z,100251.53
2022-08-01T20:33:04.721Z,100266.91
2022-08-01T20:39:11.085Z,100259.59
2022-08-01T20:45:18.822Z,100255.38
2022-08-01T20:51:24.127Z,100250.78
2022-08-01T20:57:29.322Z,100262.31
2022-08-01T21:04:05.403Z,100251.53
2022-08-01T21:10:16.566Z,100248.47
2022-08-01T21:16:29.127Z,100254.22
2022-08-01T21:22:59.997Z,100251.91
2022-08-01T21:29:07.840Z,100255.78
2022-08-01T21:35:15.842Z,100260.38
2022-08-01T21:41:18.983Z,100262.69
2022-08-01T21:47:43.299Z,100269.22
2022-08-01T21:53:48.839Z,100258.47
2022-08-01T22:00:04.010Z,100254.22
2022-08-01T22:06:08.657Z,100260.41
2022-08-01T22:12:17.564Z,100263.09
2022-08-01T22:18:20.620Z,100265.41
2022-08-01T22:24:24.986Z,100270.41
2022-08-01T22:30:29.029Z,100273.09
2022-08-01T22:36:31.772Z,100287.69
2022-08-01T22:42:47.444Z,100289.22
2022-08-01T22:49:17.292Z,100287.69
2022-08-01T22:55:21.313Z,100286.91
2022-08-01T23:01:28.991Z,100279.19
2022-08-01T23:07:50.859Z,100275.75
2022-08-01T23:13:52.861Z,100275.38
2022-08-01T23:20:06.485Z,100283.84
2022-08-01T23:26:10.409Z,100278.44
2022-08-01T23:32:16.866Z,100281.53
2022-08-01T23:38:20.429Z,100284.19
2022-08-01T23:44:22.595Z,100282.31
2022-08-01T23:50:25.782Z,100288.81
2022-08-01T23:56:31.302Z,100290.72
